createdAt,value
2022-10-05T00:02:26.435Z,101607.41
2022-10-05T00:04:55.680Z,101610.19
2022-10-05T00:07:24.048Z,101617.28
2022-10-05T00:09:58.265Z,101623.56
2022-10-05T00:12:26.575Z,101613.84
2022-10-05T00:14:56.335Z,101607.63
2022-10-05T00:17:25.458Z,101604.09
2022-10-05T00:19:52.993Z,101597.97
2022-10-05T00:22:29.434Z,101606.03
2022-10-05T00:24:58.629Z,101613.22
2022-10-05T00:27:33.167Z,101613.28
2022-10-05T00:30:01.556Z,101623.09
2022-10-05T00:32:28.328Z,101619.56
2022-10-05T00:34:57.290Z,101615.09
2022-10-05T00:37:23.990Z,101608.06
2022-10-05T00:39:50.734Z,101613.38
2022-10-05T00:42:34.603Z,101617.88
2022-10-05T00:45:14.116Z,101607.22
2022-10-05T00:47:43.838Z,101595.69
2022-10-05T00:50:28.925Z,101595.66
2022-10-05T00:53:10.720Z,101592.19
2022-10-05T00:55:59.697Z,101586.88
2022-10-05T00:58:43.556Z,101586.00
2022-10-05T01:01:15.849Z,101575.41
2022-10-05T01:04:05.346Z,101576.31
2022-10-05T01:07:16.245Z,101583.44
2022-10-05T01:10:05.736Z,101579.94
2022-10-05T01:12:50.386Z,101570.28
2022-10-05T01:15:35.327Z,101578.19
2022-10-05T01:18:31.351Z,101570.13
2022-10-05T01:21:13.643Z,101563.91
2022-10-05T01:24:01.644Z,101555.97
2022-10-05T01:26:59.497Z,101549.72
2022-10-05T01:29:38.175Z,101556.78
2022-10-05T01:32:09.251Z,101559.47
2022-10-05T01:34:42.400Z,101558.47
2022-10-05T01:37:19.125Z,101570.94
2022-10-05T01:40:12.785Z,101553.13
2022-10-05T01:42:49.219Z,101564.59
2022-10-05T01:45:21.932Z,101564.63
2022-10-05T01:47:50.309Z,101564.66
2022-10-05T01:50:29.939Z,101553.97
2022-10-05T01:53:20.423Z,101557.63
2022-10-05T01:55:56.551Z,101560.34
2022-10-05T01:58:39.857Z,101558.56
2022-10-05T02:01:18.245Z,101564.00
2022-10-05T02:03:53.569Z,101569.28
2022-10-05T02:06:24.082Z,101570.13
2022-10-05T02:09:11.889Z,101578.19
2022-10-05T02:11:44.209Z,101574.63
2022-10-05T02:14:13.297Z,101575.59
2022-10-05T02:16:41.996Z,101574.66
2022-10-05T02:19:16.211Z,101572.97
2022-10-05T02:21:47.371Z,101570.41
2022-10-05T02:24:21.718Z,101580.16
2022-10-05T02:26:51.245Z,101572.25
2022-10-05T02:29:21.785Z,101566.06
2022-10-05T02:31:53.301Z,101566.06
2022-10-05T02:34:46.600Z,101576.88
2022-10-05T02:37:29.917Z,101576.03
2022-10-05T02:40:18.664Z,101570.69
2022-10-05T02:43:09.223Z,101576.97
2022-10-05T02:45:44.980Z,101579.72
2022-10-05T02:48:27.342Z,101572.56
2022-10-05T02:51:03.082Z,101569.94
2022-10-05T02:53:39.925Z,101573.56
2022-10-05T02:56:15.639Z,101566.44
2022-10-05T02:58:50.127Z,101563.00
2022-10-05T03:01:29.588Z,101558.56
2022-10-05T03:04:07.888Z,101557.69
2022-10-05T03:06:50.073Z,101555.03
2022-10-05T03:09:17.919Z,101546.16
2022-10-05T03:11:59.114Z,101558.56
2022-10-05T03:14:27.126Z,101552.38
2022-10-05T03:17:11.974Z,101542.56
2022-10-05T03:19:54.785Z,101549.69
2022-10-05T03:22:27.858Z,101548.75
2022-10-05T03:25:18.427Z,101551.28
2022-10-05T03:28:04.367Z,101542.34
2022-10-05T03:31:03.488Z,101534.34
2022-10-05T03:33:46.797Z,101531.69
2022-10-05T03:36:30.666Z,101533.41
2022-10-05T03:39:04.307Z,101528.06
2022-10-05T03:41:43.098Z,101524.56
2022-10-05T03:44:25.624Z,101528.00
2022-10-05T03:47:07.627Z,101521.59
2022-10-05T03:49:59.199Z,101524.28
2022-10-05T03:52:45.833Z,101510.13
2022-10-05T03:55:31.609Z,101511.66
2022-10-05T03:58:03.740Z,101511.63
2022-10-05T04:00:31.413Z,101505.41
2022-10-05T04:03:08.043Z,101496.78
2022-10-05T04:06:19.334Z,101496.41
2022-10-05T04:09:00.759Z,101502.56
2022-10-05T04:11:35.138Z,101506.19
2022-10-05T04:14:10.531Z,101503.59
2022-10-05T04:16:45.405Z,101505.19
2022-10-05T04:19:19.064Z,101497.97
2022-10-05T04:21:52.463Z,101514.78
2022-10-05T04:24:26.470Z,101505.00
2022-10-05T04:27:00.021Z,101513.13
2022-10-05T04:29:33.874Z,101513.06
2022-10-05T04:32:19.756Z,101505.91
2022-10-05T04:34:49.500Z,101505.09
2022-10-05T04:37:32.742Z,101502.38
2022-10-05T04:40:08.799Z,101503.31
2022-10-05T04:42:46.665Z,101499.69
2022-10-05T04:45:39.186Z,101511.25
2022-10-05T04:48:35.515Z,101504.09
2022-10-05T04:51:17.637Z,101507.63
2022-10-05T04:53:54.689Z,101512.97
2022-10-05T04:56:31.228Z,101504.03
2022-10-05T04:59:17.631Z,101506.63
2022-10-05T05:01:47.236Z,101510.19
2022-10-05T05:04:17.181Z,101505.72
2022-10-05T05:06:53.541Z,101499.19
2022-10-05T05:09:42.020Z,101494.09
2022-10-05T05:12:13.796Z,101498.38
2022-10-05T05:15:18.209Z,101497.03
2022-10-05T05:17:59.775Z,101505.75
2022-10-05T05:21:04.727Z,101504.81
2022-10-05T05:23:50.996Z,101511.91
2022-10-05T05:26:30.119Z,101510.09
2022-10-05T05:29:34.992Z,101503.19
2022-10-05T05:32:14.641Z,101497.72
2022-10-05T05:35:00.070Z,101496.88
2022-10-05T05:37:32.961Z,101492.25
2022-10-05T05:40:21.310Z,101485.09
2022-10-05T05:43:15.025Z,101479.94
2022-10-05T05:45:43.720Z,101476.41
2022-10-05T05:48:26.466Z,101472.63
2022-10-05T05:50:59.367Z,101481.84
2022-10-05T05:53:32.297Z,101493.13
2022-10-05T05:56:04.677Z,101475.03
2022-10-05T05:58:34.419Z,101489.13
2022-10-05T06:01:33.950Z,101491.72
2022-10-05T06:04:22.203Z,101486.41
2022-10-05T06:06:52.423Z,101484.75
2022-10-05T06:09:31.286Z,101496.03
2022-10-05T06:12:15.628Z,101495.06
2022-10-05T06:14:56.823Z,101497.50
2022-10-05T06:17:43.898Z,101494.25
2022-10-05T06:20:28.096Z,101495.88
2022-10-05T06:22:59.880Z,101497.38
2022-10-05T06:25:42.617Z,101498.25
2022-10-05T06:28:14.041Z,101501.88
2022-10-05T06:31:05.229Z,101495.03
2022-10-05T06:33:47.045Z,101502.88
2022-10-05T06:36:39.732Z,101501.22
2022-10-05T06:39:38.001Z,101501.34
2022-10-05T06:42:13.809Z,101514.22
2022-10-05T06:45:08.254Z,101509.47
2022-10-05T06:48:05.575Z,101509.97
2022-10-05T06:51:13.597Z,101509.75
2022-10-05T06:54:18.533Z,101505.06
2022-10-05T06:56:50.013Z,101509.28
2022-10-05T06:59:25.757Z,101514.69
2022-10-05T07:02:06.724Z,101509.56
2022-10-05T07:05:12.487Z,101509.22
2022-10-05T07:08:20.811Z,101514.84
2022-10-05T07:10:59.802Z,101519.03
2022-10-05T07:13:54.724Z,101518.63
2022-10-05T07:16:47.934Z,101520.84
2022-10-05T07:19:33.646Z,101517.16
2022-10-05T07:22:39.710Z,101523.31
2022-10-05T07:25:30.324Z,101512.06
2022-10-05T07:28:06.066Z,101509.84
2022-10-05T07:30:40.586Z,101498.53
2022-10-05T07:33:31.697Z,101505.75
2022-10-05T07:36:31.917Z,101505.97
2022-10-05T07:39:11.887Z,101501.97
2022-10-05T07:41:48.448Z,101506.94
2022-10-05T07:44:30.037Z,101520.59
2022-10-05T07:47:18.121Z,101524.66
2022-10-05T07:50:05.999Z,101514.22
2022-10-05T07:52:36.889Z,101519.16
2022-10-05T07:55:26.190Z,101518.06
2022-10-05T07:58:13.235Z,101511.38
2022-10-05T08:00:59.708Z,101523.66
2022-10-05T08:03:45.011Z,101528.47
2022-10-05T08:06:24.606Z,101519.91
2022-10-05T08:09:08.436Z,101504.28
2022-10-05T08:11:52.468Z,101501.53
2022-10-05T08:14:44.215Z,101497.53
2022-10-05T08:17:21.670Z,101487.56
2022-10-05T08:20:03.984Z,101478.91
2022-10-05T08:22:38.286Z,101470.09
2022-10-05T08:25:13.032Z,101480.84
2022-10-05T08:27:50.862Z,101475.75
2022-10-05T08:30:17.782Z,101467.53
2022-10-05T08:33:03.385Z,101466.31
2022-10-05T08:35:39.664Z,101469.00
2022-10-05T08:38:31.237Z,101467.78
2022-10-05T08:41:36.208Z,101461.34
2022-10-05T08:44:09.190Z,101457.25
2022-10-05T08:47:11.230Z,101460.81
2022-10-05T08:49:46.926Z,101454.72
2022-10-05T08:52:25.506Z,101451.00
2022-10-05T08:55:10.539Z,101442.97
2022-10-05T08:57:49.584Z,101438.50
2022-10-05T09:00:22.001Z,101432.75
2022-10-05T09:03:28.189Z,101431.94
2022-10-05T09:06:16.826Z,101432.28
2022-10-05T09:09:22.222Z,101438.25
2022-10-05T09:12:27.817Z,101434.75
2022-10-05T09:15:24.413Z,101434.53
2022-10-05T09:18:29.349Z,101439.91
2022-10-05T09:21:10.032Z,101441.94
2022-10-05T09:23:39.985Z,101441.66
2022-10-05T09:26:25.286Z,101442.38
2022-10-05T09:29:07.302Z,101437.94
2022-10-05T09:31:55.250Z,101440.19
2022-10-05T09:34:37.197Z,101421.97
2022-10-05T09:37:34.767Z,101432.63
2022-10-05T09:40:37.510Z,101434.31
2022-10-05T09:43:23.322Z,101421.28
2022-10-05T09:46:29.500Z,101426.06
2022-10-05T09:49:14.979Z,101416.16
2022-10-05T09:52:19.145Z,101414.78
2022-10-05T09:55:10.254Z,101401.47
2022-10-05T09:57:39.981Z,101402.00
2022-10-05T10:00:15.534Z,101396.59
2022-10-05T10:03:02.562Z,101399.56
2022-10-05T10:05:52.358Z,101390.41
2022-10-05T10:08:43.805Z,101388.25
2022-10-05T10:11:24.185Z,101392.84
2022-10-05T10:14:14.474Z,101392.41
2022-10-05T10:17:03.028Z,101392.56
2022-10-05T10:20:07.296Z,101379.44
2022-10-05T10:22:43.090Z,101385.91
2022-10-05T10:25:35.061Z,101389.53
2022-10-05T10:28:23.826Z,101398.56
2022-10-05T10:31:16.950Z,101397.22
2022-10-05T10:33:46.595Z,101403.31
2022-10-05T10:36:33.925Z,101409.22
2022-10-05T10:39:29.828Z,101396.16
2022-10-05T10:42:07.210Z,101406.72
2022-10-05T10:44:49.363Z,101409.91
2022-10-05T10:47:28.782Z,101406.25
2022-10-05T10:50:24.224Z,101403.47
2022-10-05T10:53:10.529Z,101407.56
2022-10-05T10:56:05.407Z,101409.91
2022-10-05T10:58:51.839Z,101403.84
2022-10-05T11:01:33.738Z,101392.41
2022-10-05T11:04:07.714Z,101385.59
2022-10-05T11:07:05.687Z,101380.56
2022-10-05T11:09:53.605Z,101369.69
2022-10-05T11:12:41.641Z,101374.16
2022-10-05T11:15:20.705Z,101373.53
2022-10-05T11:17:58.181Z,101367.19
2022-10-05T11:20:42.326Z,101371.59
2022-10-05T11:23:27.510Z,101356.66
2022-10-05T11:26:16.140Z,101353.22
2022-10-05T11:28:54.392Z,101349.53
2022-10-05T11:31:31.285Z,101344.19
2022-10-05T11:34:09.594Z,101341.41
2022-10-05T11:36:42.256Z,101341.19
2022-10-05T11:39:39.221Z,101336.31
2022-10-05T11:42:23.909Z,101333.25
2022-10-05T11:45:06.385Z,101335.44
2022-10-05T11:47:40.714Z,101337.31
2022-10-05T11:50:26.988Z,101338.47
2022-10-05T11:53:04.493Z,101333.50
2022-10-05T11:55:40.494Z,101335.38
2022-10-05T11:58:51.276Z,101327.66
2022-10-05T12:01:25.114Z,101323.16
2022-10-05T12:04:16.827Z,101330.03
2022-10-05T12:07:04.061Z,101331.16
2022-10-05T12:10:02.860Z,101319.69
2022-10-05T12:12:36.009Z,101320.66
2022-10-05T12:15:27.135Z,101322.88
2022-10-05T12:18:10.868Z,101321.63
2022-10-05T12:20:46.900Z,101315.13
2022-10-05T12:23:21.052Z,101314.47
2022-10-05T12:25:51.414Z,101309.91
2022-10-05T12:28:23.837Z,101310.22
2022-10-05T12:31:13.908Z,101310.34
2022-10-05T12:34:12.526Z,101301.44
2022-10-05T12:37:06.456Z,101295.91
2022-10-05T12:40:11.623Z,101294.94
2022-10-05T12:42:47.799Z,101290.09
2022-10-05T12:45:30.249Z,101288.28
2022-10-05T12:48:02.302Z,101279.78
2022-10-05T12:50:35.618Z,101287.25
2022-10-05T12:53:11.400Z,101290.22
2022-10-05T12:56:05.138Z,101288.28
2022-10-05T12:58:48.937Z,101276.38
2022-10-05T13:01:27.532Z,101282.03
2022-10-05T13:04:22.332Z,101276.22
2022-10-05T13:07:07.707Z,101282.28
2022-10-05T13:09:43.143Z,101282.34
2022-10-05T13:12:52.488Z,101283.09
2022-10-05T13:15:20.550Z,101277.88
2022-10-05T13:18:03.384Z,101282.53
2022-10-05T13:20:47.618Z,101286.22
2022-10-05T13:23:30.196Z,101293.88
2022-10-05T13:26:04.145Z,101290.00
2022-10-05T13:28:36.311Z,101284.47
2022-10-05T13:31:07.300Z,101283.06
2022-10-05T13:33:54.914Z,101289.03
2022-10-05T13:36:53.082Z,101269.66
2022-10-05T13:39:46.041Z,101272.97
2022-10-05T13:42:19.665Z,101278.19
2022-10-05T13:45:04.603Z,101281.56
2022-10-05T13:48:06.760Z,101272.31
2022-10-05T13:50:35.694Z,101266.38
2022-10-05T13:53:43.287Z,101269.50
2022-10-05T13:56:42.999Z,101264.75
2022-10-05T13:59:43.866Z,101271.78
2022-10-05T14:02:12.884Z,101269.56
2022-10-05T14:04:51.085Z,101260.66
2022-10-05T14:07:31.788Z,101259.91
2022-10-05T14:09:59.797Z,101251.31
2022-10-05T14:12:27.745Z,101255.34
2022-10-05T14:14:57.441Z,101248.97
2022-10-05T14:17:33.389Z,101250.28
2022-10-05T14:20:01.366Z,101242.50
2022-10-05T14:22:29.353Z,101237.25
2022-10-05T14:25:03.244Z,101234.38
2022-10-05T14:27:33.331Z,101228.25
2022-10-05T14:30:19.590Z,101225.38
2022-10-05T14:33:00.602Z,101230.53
2022-10-05T14:35:32.776Z,101215.31
2022-10-05T14:38:02.369Z,101211.34
2022-10-05T14:40:38.145Z,101214.56
2022-10-05T14:43:22.974Z,101226.72
2022-10-05T14:45:55.922Z,101218.53
2022-10-05T14:48:22.866Z,101209.81
2022-10-05T14:50:59.497Z,101209.53
2022-10-05T14:53:38.134Z,101208.09
2022-10-05T14:56:17.745Z,101200.06
2022-10-05T14:58:50.779Z,101200.97
2022-10-05T15:01:26.724Z,101207.03
2022-10-05T15:04:18.166Z,101197.56
2022-10-05T15:07:04.104Z,101203.75
2022-10-05T15:09:55.545Z,101204.91
2022-10-05T15:12:29.811Z,101203.75
2022-10-05T15:15:03.812Z,101197.94
2022-10-05T15:17:41.198Z,101197.69
2022-10-05T15:20:29.154Z,101202.69
2022-10-05T15:23:24.999Z,101203.44
2022-10-05T15:26:29.088Z,101205.19
2022-10-05T15:28:55.966Z,101201.50
2022-10-05T15:31:39.426Z,101204.59
2022-10-05T15:34:30.741Z,101198.97
2022-10-05T15:37:22.489Z,101204.38
2022-10-05T15:39:58.400Z,101201.00
2022-10-05T15:42:36.657Z,101211.69
2022-10-05T15:45:15.810Z,101200.50
2022-10-05T15:48:01.723Z,101207.13
2022-10-05T15:50:57.070Z,101205.03
2022-10-05T15:53:33.498Z,101198.19
2022-10-05T15:56:04.851Z,101205.59
2022-10-05T15:58:46.832Z,101198.78
2022-10-05T16:01:20.864Z,101211.06
2022-10-05T16:04:11.575Z,101202.63
2022-10-05T16:07:01.986Z,101191.00
2022-10-05T16:09:53.654Z,101208.47
2022-10-05T16:12:29.271Z,101202.72
2022-10-05T16:15:16.387Z,101201.34
2022-10-05T16:18:00.957Z,101196.63
2022-10-05T16:20:41.154Z,101194.00
2022-10-05T16:23:48.004Z,101202.56
2022-10-05T16:26:31.835Z,101189.47
2022-10-05T16:29:11.944Z,101188.88
2022-10-05T16:31:54.576Z,101184.19
2022-10-05T16:34:45.630Z,101179.34
2022-10-05T16:37:28.338Z,101182.13
2022-10-05T16:40:00.752Z,101183.72
2022-10-05T16:42:46.795Z,101180.06
2022-10-05T16:45:16.582Z,101176.63
2022-10-05T16:48:02.767Z,101179.50
2022-10-05T16:51:07.702Z,101178.94
2022-10-05T16:53:39.721Z,101185.06
2022-10-05T16:56:11.366Z,101177.47
2022-10-05T16:59:15.876Z,101196.72
2022-10-05T17:02:03.315Z,101193.97
2022-10-05T17:04:41.250Z,101189.16
2022-10-05T17:07:39.475Z,101193.56
2022-10-05T17:10:30.310Z,101195.97
2022-10-05T17:13:03.176Z,101188.75
2022-10-05T17:15:42.834Z,101188.31
2022-10-05T17:18:27.951Z,101185.34
2022-10-05T17:21:34.920Z,101193.03
2022-10-05T17:24:24.875Z,101183.69
2022-10-05T17:27:25.839Z,101195.94
2022-10-05T17:29:55.879Z,101187.66
2022-10-05T17:32:22.586Z,101192.25
2022-10-05T17:35:01.612Z,101192.72
2022-10-05T17:37:28.298Z,101203.88
2022-10-05T17:39:55.980Z,101194.31
2022-10-05T17:46:46.052Z,101198.81
2022-10-05T17:49:34.141Z,101201.09
2022-10-05T17:52:22.720Z,101210.06
2022-10-05T17:55:08.684Z,101196.19
2022-10-05T17:57:37.160Z,101198.41
2022-10-05T18:00:06.066Z,101193.31
2022-10-05T18:02:36.607Z,101197.03
2022-10-05T18:05:12.302Z,101195.59
2022-10-05T18:07:49.890Z,101201.34
2022-10-05T18:10:29.344Z,101193.59
2022-10-05T18:12:59.081Z,101196.59
2022-10-05T18:15:25.905Z,101195.06
2022-10-05T18:18:20.554Z,101190.84
2022-10-05T18:21:18.553Z,101192.88
2022-10-05T18:24:01.832Z,101194.25
2022-10-05T18:26:52.409Z,101188.88
2022-10-05T18:30:00.639Z,101199.88
2022-10-05T18:32:52.162Z,101199.19
2022-10-05T18:35:29.733Z,101194.13
2022-10-05T18:38:06.047Z,101203.25
2022-10-05T18:40:49.134Z,101201.53
2022-10-05T18:43:56.496Z,101187.50
2022-10-05T18:46:34.115Z,101185.09
2022-10-05T18:49:19.245Z,101195.06
2022-10-05T18:51:59.014Z,101195.28
2022-10-05T18:54:40.967Z,101195.53
2022-10-05T18:57:26.668Z,101189.53
2022-10-05T19:00:23.788Z,101191.41
2022-10-05T19:03:01.037Z,101195.28
2022-10-05T19:05:49.119Z,101196.41
2022-10-05T19:08:42.066Z,101197.50
2022-10-05T19:11:29.987Z,101189.63
2022-10-05T19:14:18.569Z,101194.28
2022-10-05T19:16:51.771Z,101194.47
2022-10-05T19:19:39.063Z,101208.09
2022-10-05T19:22:15.083Z,101210.84
2022-10-05T19:24:44.918Z,101221.72
2022-10-05T19:27:28.199Z,101219.16
2022-10-05T19:30:25.387Z,101234.44
2022-10-05T19:33:22.917Z,101230.16
2022-10-05T19:36:23.219Z,101236.59
2022-10-05T19:39:08.218Z,101239.53
2022-10-05T19:41:40.918Z,101250.25
2022-10-05T19:44:10.707Z,101253.00
2022-10-05T19:46:46.559Z,101251.28
2022-10-05T19:49:36.280Z,101255.88
2022-10-05T19:52:13.131Z,101251.59
2022-10-05T19:54:41.935Z,101265.91
2022-10-05T19:57:18.119Z,101256.19
2022-10-05T19:59:46.802Z,101261.69
2022-10-05T20:02:17.265Z,101264.34
2022-10-05T20:04:46.039Z,101262.69
2022-10-05T20:07:21.765Z,101268.91
2022-10-05T20:09:52.328Z,101276.97
2022-10-05T20:12:23.104Z,101266.22
2022-10-05T20:15:24.399Z,101275.34
2022-10-05T20:18:09.970Z,101277.25
2022-10-05T20:20:47.166Z,101280.94
2022-10-05T20:23:28.108Z,101297.91
2022-10-05T20:26:13.460Z,101288.31
2022-10-05T20:28:40.324Z,101306.09
2022-10-05T20:31:08.256Z,101308.81
2022-10-05T20:33:35.102Z,101302.59
2022-10-05T20:36:03.851Z,101309.94
2022-10-05T20:38:31.644Z,101305.38
2022-10-05T20:40:58.705Z,101304.72
2022-10-05T20:43:25.459Z,101317.31
2022-10-05T20:45:52.373Z,101319.19
2022-10-05T20:48:19.972Z,101320.91
2022-10-05T20:50:47.417Z,101323.44
2022-10-05T20:53:14.140Z,101336.59
2022-10-05T20:55:40.968Z,101330.16
2022-10-05T20:58:09.127Z,101336.59
2022-10-05T21:00:54.494Z,101335.13
2022-10-05T21:03:21.239Z,101337.72
2022-10-05T21:05:48.013Z,101336.19
2022-10-05T21:08:15.333Z,101328.16
2022-10-05T21:10:42.036Z,101332.44
2022-10-05T21:13:09.264Z,101334.06
2022-10-05T21:15:36.095Z,101338.25
2022-10-05T21:18:02.783Z,101344.97
2022-10-05T21:20:29.470Z,101339.53
2022-10-05T21:22:56.124Z,101342.44
2022-10-05T21:25:22.816Z,101345.72
2022-10-05T21:27:50.350Z,101345.78
2022-10-05T21:30:17.126Z,101335.56
2022-10-05T21:32:44.770Z,101345.34
2022-10-05T21:35:11.662Z,101343.19
2022-10-05T21:37:38.395Z,101352.66
2022-10-05T21:40:05.435Z,101344.91
2022-10-05T21:42:32.213Z,101355.91
2022-10-05T21:44:59.007Z,101351.47
2022-10-05T21:47:25.812Z,101363.84
2022-10-05T21:49:52.548Z,101365.56
2022-10-05T21:52:19.669Z,101370.81
2022-10-05T21:54:47.019Z,101364.38
2022-10-05T21:57:14.815Z,101352.53
2022-10-05T21:59:42.275Z,101366.03
2022-10-05T22:02:08.985Z,101367.38
2022-10-05T22:04:35.675Z,101367.13
2022-10-05T22:07:09.737Z,101370.59
2022-10-05T22:09:36.403Z,101372.03
2022-10-05T22:12:03.066Z,101363.06
2022-10-05T22:14:29.735Z,101366.97
2022-10-05T22:16:56.469Z,101361.25
2022-10-05T22:19:23.166Z,101361.94
2022-10-05T22:21:49.797Z,101356.28
2022-10-05T22:24:16.449Z,101365.94
2022-10-05T22:26:44.882Z,101369.03
2022-10-05T22:29:11.964Z,101362.56
2022-10-05T22:31:39.230Z,101368.16
2022-10-05T22:34:06.042Z,101358.69
2022-10-05T22:36:35.405Z,101370.16
2022-10-05T22:39:02.085Z,101373.25
2022-10-05T22:41:28.836Z,101376.75
2022-10-05T22:43:55.453Z,101385.53
2022-10-05T22:46:22.111Z,101385.88
2022-10-05T22:48:48.784Z,101384.97
2022-10-05T22:51:15.544Z,101386.44
2022-10-05T22:53:42.248Z,101383.94
2022-10-05T22:56:11.085Z,101386.72
2022-10-05T22:58:38.097Z,101393.56
2022-10-05T23:01:07.255Z,101389.53
2022-10-05T23:03:34.605Z,101399.44
2022-10-05T23:06:04.777Z,101395.13
2022-10-05T23:08:32.714Z,101408.88
2022-10-05T23:11:04.243Z,101402.47
2022-10-05T23:13:31.092Z,101409.09
2022-10-05T23:15:57.759Z,101416.06
2022-10-05T23:18:24.546Z,101412.59
2022-10-05T23:20:57.549Z,101414.72
2022-10-05T23:23:24.246Z,101408.75
2022-10-05T23:25:51.046Z,101416.34
2022-10-05T23:28:17.760Z,101407.34
2022-10-05T23:30:44.752Z,101418.81
2022-10-05T23:33:11.441Z,101419.22
2022-10-05T23:35:38.145Z,101412.03
2022-10-05T23:38:04.947Z,101423.66
2022-10-05T23:40:31.620Z,101430.16
2022-10-05T23:42:58.648Z,101430.09
2022-10-05T23:45:25.326Z,101438.03
2022-10-05T23:47:51.959Z,101429.13
2022-10-05T23:50:20.642Z,101437.63
2022-10-05T23:52:47.288Z,101435.69
2022-10-05T23:55:13.986Z,101434.50
2022-10-05T23:57:40.665Z,101432.72
